sensor_id;sensor_type;location;lat;lon;timestamp;temperature;humidity
29539;DHT22;16482;51.046;4.498;2022-11-20T00:00:27;23.60;29.90
29539;DHT22;16482;51.046;4.498;2022-11-20T00:02:53;23.50;30.00
29539;DHT22;16482;51.046;4.498;2022-11-20T00:08:24;23.50;29.90
29539;DHT22;16482;51.046;4.498;2022-11-20T00:10:49;23.50;30.00
29539;DHT22;16482;51.046;4.498;2022-11-20T00:16:37;23.50;29.90
29539;DHT22;16482;51.046;4.498;2022-11-20T00:19:22;23.50;29.90
29539;DHT22;16482;51.046;4.498;2022-11-20T00:21:51;23.50;29.90
29539;DHT22;16482;51.046;4.498;2022-11-20T00:24:21;23.50;29.90
29539;DHT22;16482;51.046;4.498;2022-11-20T00:26:51;23.50;30.00
29539;DHT22;16482;51.046;4.498;2022-11-20T00:29:25;23.50;29.90
29539;DHT22;16482;51.046;4.498;2022-11-20T00:31:58;23.50;30.00
29539;DHT22;16482;51.046;4.498;2022-11-20T00:34:23;23.50;29.90
29539;DHT22;16482;51.046;4.498;2022-11-20T00:36:49;23.50;29.90
29539;DHT22;16482;51.046;4.498;2022-11-20T00:39:18;23.40;29.90
29539;DHT22;16482;51.046;4.498;2022-11-20T00:41:48;23.40;29.90
29539;DHT22;16482;51.046;4.498;2022-11-20T00:44:24;23.50;29.90
29539;DHT22;16482;51.046;4.498;2022-11-20T00:46:54;23.50;30.00
29539;DHT22;16482;51.046;4.498;2022-11-20T00:49:19;23.40;29.90
29539;DHT22;16482;51.046;4.498;2022-11-20T00:52:04;23.40;30.00
29539;DHT22;16482;51.046;4.498;2022-11-20T00:54:30;23.40;30.00
29539;DHT22;16482;51.046;4.498;2022-11-20T00:56:55;23.40;30.00
29539;DHT22;16482;51.046;4.498;2022-11-20T00:59:21;23.40;30.00
29539;DHT22;16482;51.046;4.498;2022-11-20T01:01:50;23.40;30.00
29539;DHT22;16482;51.046;4.498;2022-11-20T01:04:18;23.40;30.00
29539;DHT22;16482;51.046;4.498;2022-11-20T01:06:48;23.40;30.10
29539;DHT22;16482;51.046;4.498;2022-11-20T01:09:14;23.40;30.00
29539;DHT22;16482;51.046;4.498;2022-11-20T01:11:43;23.40;30.00
29539;DHT22;16482;51.046;4.498;2022-11-20T01:14:14;23.40;30.00
29539;DHT22;16482;51.046;4.498;2022-11-20T01:16:45;23.40;30.00
29539;DHT22;16482;51.046;4.498;2022-11-20T01:19:18;23.40;30.00
29539;DHT22;16482;51.046;4.498;2022-11-20T01:21:45;23.40;30.00
29539;DHT22;16482;51.046;4.498;2022-11-20T01:24:18;23.40;30.00
29539;DHT22;16482;51.046;4.498;2022-11-20T01:26:47;23.40;29.90
29539;DHT22;16482;51.046;4.498;2022-11-20T01:32:37;23.30;29.90
29539;DHT22;16482;51.046;4.498;2022-11-20T01:38:09;23.30;29.90
29539;DHT22;16482;51.046;4.498;2022-11-20T01:40:35;23.30;29.90
29539;DHT22;16482;51.046;4.498;2022-11-20T01:43:21;23.30;29.90
29539;DHT22;16482;51.046;4.498;2022-11-20T01:51:42;23.30;29.80
29539;DHT22;16482;51.046;4.498;2022-11-20T01:54:16;23.30;29.90
29539;DHT22;16482;51.046;4.498;2022-11-20T01:56:51;23.20;29.90
29539;DHT22;16482;51.046;4.498;2022-11-20T02:00:15;23.30;29.90
29539;DHT22;16482;51.046;4.498;2022-11-20T02:02:46;23.20;29.90
29539;DHT22;16482;51.046;4.498;2022-11-20T02:05:35;23.20;29.90
29539;DHT22;16482;51.046;4.498;2022-11-20T02:08:03;23.20;29.90
29539;DHT22;16482;51.046;4.498;2022-11-20T02:10:30;23.20;29.90
29539;DHT22;16482;51.046;4.498;2022-11-20T02:12:56;23.20;29.90
29539;DHT22;16482;51.046;4.498;2022-11-20T02:15:40;23.20;29.90
29539;DHT22;16482;51.046;4.498;2022-11-20T02:18:11;23.20;29.90
29539;DHT22;16482;51.046;4.498;2022-11-20T02:20:41;23.20;29.90
29539;DHT22;16482;51.046;4.498;2022-11-20T02:26:12;23.20;29.90
29539;DHT22;16482;51.046;4.498;2022-11-20T02:28:39;23.20;29.90
29539;DHT22;16482;51.046;4.498;2022-11-20T02:31:05;23.20;30.00
29539;DHT22;16482;51.046;4.498;2022-11-20T02:33:30;23.20;30.00
29539;DHT22;16482;51.046;4.498;2022-11-20T02:35:56;23.20;30.00
29539;DHT22;16482;51.046;4.498;2022-11-20T02:38:24;23.20;30.00
29539;DHT22;16482;51.046;4.498;2022-11-20T02:40:50;23.20;30.00
29539;DHT22;16482;51.046;4.498;2022-11-20T02:43:16;23.20;30.00
29539;DHT22;16482;51.046;4.498;2022-11-20T02:45:42;23.20;30.00
29539;DHT22;16482;51.046;4.498;2022-11-20T02:48:08;23.20;30.00
29539;DHT22;16482;51.046;4.498;2022-11-20T02:53:56;23.20;30.00
29539;DHT22;16482;51.046;4.498;2022-11-20T02:56:41;23.10;30.10
29539;DHT22;16482;51.046;4.498;2022-11-20T02:59:07;23.10;30.00
29539;DHT22;16482;51.046;4.498;2022-11-20T03:01:33;23.10;30.00
29539;DHT22;16482;51.046;4.498;2022-11-20T03:04:18;23.10;30.00
29539;DHT22;16482;51.046;4.498;2022-11-20T03:06:46;23.20;30.00
29539;DHT22;16482;51.046;4.498;2022-11-20T03:09:12;23.10;30.00
29539;DHT22;16482;51.046;4.498;2022-11-20T03:11:56;23.10;30.00
29539;DHT22;16482;51.046;4.498;2022-11-20T03:14:22;23.10;30.00
29539;DHT22;16482;51.046;4.498;2022-11-20T03:16:48;23.10;30.10
29539;DHT22;16482;51.046;4.498;2022-11-20T03:19:29;23.10;30.10
29539;DHT22;16482;51.046;4.498;2022-11-20T03:21:55;23.10;30.10
29539;DHT22;16482;51.046;4.498;2022-11-20T03:24:21;23.10;30.10
29539;DHT22;16482;51.046;4.498;2022-11-20T03:26:48;23.10;30.10
29539;DHT22;16482;51.046;4.498;2022-11-20T03:29:16;23.10;30.10
29539;DHT22;16482;51.046;4.498;2022-11-20T03:31:42;23.10;30.20
29539;DHT22;16482;51.046;4.498;2022-11-20T03:37:30;23.10;30.10
29539;DHT22;16482;51.046;4.498;2022-11-20T03:39:56;23.10;30.20
29539;DHT22;16482;51.046;4.498;2022-11-20T03:42:22;23.10;30.30
29539;DHT22;16482;51.046;4.498;2022-11-20T03:45:12;23.00;30.30
29539;DHT22;16482;51.046;4.498;2022-11-20T03:47:41;23.10;30.40
29539;DHT22;16482;51.046;4.498;2022-11-20T03:50:08;23.10;30.40
29539;DHT22;16482;51.046;4.498;2022-11-20T03:52:34;23.00;30.30
29539;DHT22;16482;51.046;4.498;2022-11-20T03:55:18;23.10;30.40
29539;DHT22;16482;51.046;4.498;2022-11-20T03:57:44;23.10;30.40
29539;DHT22;16482;51.046;4.498;2022-11-20T04:00:10;23.00;30.40
29539;DHT22;16482;51.046;4.498;2022-11-20T04:02:36;23.10;30.40
29539;DHT22;16482;51.046;4.498;2022-11-20T04:05:03;23.00;30.40
29539;DHT22;16482;51.046;4.498;2022-11-20T04:07:29;23.00;30.40
29539;DHT22;16482;51.046;4.498;2022-11-20T04:09:55;23.00;30.50
29539;DHT22;16482;51.046;4.498;2022-11-20T04:12:40;23.00;30.50
29539;DHT22;16482;51.046;4.498;2022-11-20T04:15:06;23.00;30.40
29539;DHT22;16482;51.046;4.498;2022-11-20T04:17:32;23.00;30.50
29539;DHT22;16482;51.046;4.498;2022-11-20T04:19:58;23.00;30.50
29539;DHT22;16482;51.046;4.498;2022-11-20T04:22:24;23.00;30.50
29539;DHT22;16482;51.046;4.498;2022-11-20T04:24:50;23.00;30.50
29539;DHT22;16482;51.046;4.498;2022-11-20T04:30:38;23.00;30.40
29539;DHT22;16482;51.046;4.498;2022-11-20T04:36:27;23.00;30.60
29539;DHT22;16482;51.046;4.498;2022-11-20T04:39:14;22.90;30.60
29539;DHT22;16482;51.046;4.498;2022-11-20T04:41:45;23.00;30.60
29539;DHT22;16482;51.046;4.498;2022-11-20T04:44:11;22.90;30.70
29539;DHT22;16482;51.046;4.498;2022-11-20T04:46:40;22.90;30.70
29539;DHT22;16482;51.046;4.498;2022-11-20T04:49:07;23.00;30.70
29539;DHT22;16482;51.046;4.498;2022-11-20T04:51:33;22.90;30.70
29539;DHT22;16482;51.046;4.498;2022-11-20T04:54:00;22.90;30.70
29539;DHT22;16482;51.046;4.498;2022-11-20T04:56:26;22.90;30.70
29539;DHT22;16482;51.046;4.498;2022-11-20T04:58:52;22.90;30.70
29539;DHT22;16482;51.046;4.498;2022-11-20T05:01:37;22.90;30.70
29539;DHT22;16482;51.046;4.498;2022-11-20T05:04:03;22.90;30.60
29539;DHT22;16482;51.046;4.498;2022-11-20T05:06:29;22.90;30.60
29539;DHT22;16482;51.046;4.498;2022-11-20T05:08:55;22.90;30.70
29539;DHT22;16482;51.046;4.498;2022-11-20T05:11:21;22.90;30.70
29539;DHT22;16482;51.046;4.498;2022-11-20T05:13:48;22.90;30.80
29539;DHT22;16482;51.046;4.498;2022-11-20T05:16:16;22.90;30.70
29539;DHT22;16482;51.046;4.498;2022-11-20T05:18:43;22.90;30.70
29539;DHT22;16482;51.046;4.498;2022-11-20T05:21:09;22.90;30.70
29539;DHT22;16482;51.046;4.498;2022-11-20T05:23:36;22.90;30.70
29539;DHT22;16482;51.046;4.498;2022-11-20T05:26:03;22.90;30.80
29539;DHT22;16482;51.046;4.498;2022-11-20T05:28:36;22.90;30.80
29539;DHT22;16482;51.046;4.498;2022-11-20T05:31:23;22.90;30.80
29539;DHT22;16482;51.046;4.498;2022-11-20T05:33:49;22.90;30.80
29539;DHT22;16482;51.046;4.498;2022-11-20T05:36:16;22.90;30.80
29539;DHT22;16482;51.046;4.498;2022-11-20T05:38:43;22.90;30.90
29539;DHT22;16482;51.046;4.498;2022-11-20T05:41:15;22.90;30.90
29539;DHT22;16482;51.046;4.498;2022-11-20T05:43:43;22.90;30.90
29539;DHT22;16482;51.046;4.498;2022-11-20T05:49:12;22.90;30.90
29539;DHT22;16482;51.046;4.498;2022-11-20T05:51:38;22.90;31.00
29539;DHT22;16482;51.046;4.498;2022-11-20T05:54:04;22.80;31.00
29539;DHT22;16482;51.046;4.498;2022-11-20T05:56:30;22.90;31.10
29539;DHT22;16482;51.046;4.498;2022-11-20T05:58:56;22.80;31.00
29539;DHT22;16482;51.046;4.498;2022-11-20T06:01:25;22.80;31.00
29539;DHT22;16482;51.046;4.498;2022-11-20T06:03:53;22.80;31.00
29539;DHT22;16482;51.046;4.498;2022-11-20T06:06:19;22.80;30.90
29539;DHT22;16482;51.046;4.498;2022-11-20T06:09:05;22.90;31.20
29539;DHT22;16482;51.046;4.498;2022-11-20T06:11:31;22.90;31.60
29539;DHT22;16482;51.046;4.498;2022-11-20T06:13:57;22.90;31.90
29539;DHT22;16482;51.046;4.498;2022-11-20T06:19:10;22.90;32.30
29539;DHT22;16482;51.046;4.498;2022-11-20T06:21:36;22.90;32.30
29539;DHT22;16482;51.046;4.498;2022-11-20T06:24:02;22.90;32.30
29539;DHT22;16482;51.046;4.498;2022-11-20T06:26:27;22.90;32.30
29539;DHT22;16482;51.046;4.498;2022-11-20T06:28:54;23.00;32.20
29539;DHT22;16482;51.046;4.498;2022-11-20T06:34:43;23.10;32.10
29539;DHT22;16482;51.046;4.498;2022-11-20T06:40:31;23.20;32.10
29539;DHT22;16482;51.046;4.498;2022-11-20T06:42:58;23.20;32.20
29539;DHT22;16482;51.046;4.498;2022-11-20T06:45:24;23.30;32.20
29539;DHT22;16482;51.046;4.498;2022-11-20T06:47:49;23.30;32.10
29539;DHT22;16482;51.046;4.498;2022-11-20T06:50:17;23.30;32.10
29539;DHT22;16482;51.046;4.498;2022-11-20T06:52:43;23.40;32.10
29539;DHT22;16482;51.046;4.498;2022-11-20T06:55:09;23.40;32.10
29539;DHT22;16482;51.046;4.498;2022-11-20T06:57:34;23.40;32.00
29539;DHT22;16482;51.046;4.498;2022-11-20T07:00:01;23.40;32.00
29539;DHT22;16482;51.046;4.498;2022-11-20T07:02:26;23.50;32.00
29539;DHT22;16482;51.046;4.498;2022-11-20T07:04:52;23.50;32.10
29539;DHT22;16482;51.046;4.498;2022-11-20T07:07:18;23.50;32.00
29539;DHT22;16482;51.046;4.498;2022-11-20T07:09:44;23.60;32.10
29539;DHT22;16482;51.046;4.498;2022-11-20T07:12:11;23.60;32.10
29539;DHT22;16482;51.046;4.498;2022-11-20T07:14:37;23.60;32.10
29539;DHT22;16482;51.046;4.498;2022-11-20T07:17:03;23.60;32.30
29539;DHT22;16482;51.046;4.498;2022-11-20T07:22:43;23.70;32.50
29539;DHT22;16482;51.046;4.498;2022-11-20T07:25:10;23.60;32.80
29539;DHT22;16482;51.046;4.498;2022-11-20T07:30:29;23.70;33.10
29539;DHT22;16482;51.046;4.498;2022-11-20T07:32:56;23.70;33.30
29539;DHT22;16482;51.046;4.498;2022-11-20T07:35:24;23.70;33.40
29539;DHT22;16482;51.046;4.498;2022-11-20T07:37:50;23.70;33.80
29539;DHT22;16482;51.046;4.498;2022-11-20T07:40:19;23.70;34.00
29539;DHT22;16482;51.046;4.498;2022-11-20T07:42:53;23.70;34.20
29539;DHT22;16482;51.046;4.498;2022-11-20T07:45:37;23.70;34.30
29539;DHT22;16482;51.046;4.498;2022-11-20T07:48:03;23.70;34.60
29539;DHT22;16482;51.046;4.498;2022-11-20T07:50:29;23.70;34.80
29539;DHT22;16482;51.046;4.498;2022-11-20T07:56:17;23.70;35.20
29539;DHT22;16482;51.046;4.498;2022-11-20T07:59:03;23.70;35.40
29539;DHT22;16482;51.046;4.498;2022-11-20T08:01:29;23.70;35.50
29539;DHT22;16482;51.046;4.498;2022-11-20T08:03:55;23.70;35.70
29539;DHT22;16482;51.046;4.498;2022-11-20T08:06:22;23.70;35.80
29539;DHT22;16482;51.046;4.498;2022-11-20T08:08:47;23.70;35.90
29539;DHT22;16482;51.046;4.498;2022-11-20T08:11:13;23.70;36.00
29539;DHT22;16482;51.046;4.498;2022-11-20T08:13:58;23.70;36.00
29539;DHT22;16482;51.046;4.498;2022-11-20T08:16:47;23.80;36.10
29539;DHT22;16482;51.046;4.498;2022-11-20T08:19:16;23.70;36.10
29539;DHT22;16482;51.046;4.498;2022-11-20T08:21:43;23.70;36.10
29539;DHT22;16482;51.046;4.498;2022-11-20T08:24:10;23.70;36.20
29539;DHT22;16482;51.046;4.498;2022-11-20T08:26:38;23.70;36.20
29539;DHT22;16482;51.046;4.498;2022-11-20T08:29:05;23.80;36.30
29539;DHT22;16482;51.046;4.498;2022-11-20T08:31:32;23.70;36.20
29539;DHT22;16482;51.046;4.498;2022-11-20T08:37:20;23.80;36.20
29539;DHT22;16482;51.046;4.498;2022-11-20T08:43:08;23.80;36.20
29539;DHT22;16482;51.046;4.498;2022-11-20T08:45:52;23.70;36.20
29539;DHT22;16482;51.046;4.498;2022-11-20T08:48:18;23.70;36.30
29539;DHT22;16482;51.046;4.498;2022-11-20T08:50:44;23.70;36.20
29539;DHT22;16482;51.046;4.498;2022-11-20T08:53:31;23.70;36.30
29539;DHT22;16482;51.046;4.498;2022-11-20T08:55:58;23.70;36.30
29539;DHT22;16482;51.046;4.498;2022-11-20T08:58:25;23.80;36.30
29539;DHT22;16482;51.046;4.498;2022-11-20T09:00:53;23.70;36.20
29539;DHT22;16482;51.046;4.498;2022-11-20T09:03:19;23.70;36.20
29539;DHT22;16482;51.046;4.498;2022-11-20T09:05:45;23.80;36.30
29539;DHT22;16482;51.046;4.498;2022-11-20T09:08:11;23.80;36.30
29539;DHT22;16482;51.046;4.498;2022-11-20T09:10:36;23.80;36.30
29539;DHT22;16482;51.046;4.498;2022-11-20T09:13:05;23.80;36.30
29539;DHT22;16482;51.046;4.498;2022-11-20T09:15:31;23.80;36.30
29539;DHT22;16482;51.046;4.498;2022-11-20T09:17:58;23.80;36.30
29539;DHT22;16482;51.046;4.498;2022-11-20T09:20:25;23.80;36.30
29539;DHT22;16482;51.046;4.498;2022-11-20T09:25:56;23.80;36.30
29539;DHT22;16482;51.046;4.498;2022-11-20T09:28:25;23.80;36.30
29539;DHT22;16482;51.046;4.498;2022-11-20T09:30:53;23.80;36.30
29539;DHT22;16482;51.046;4.498;2022-11-20T09:33:19;23.80;36.40
29539;DHT22;16482;51.046;4.498;2022-11-20T09:35:45;23.80;36.30
29539;DHT22;16482;51.046;4.498;2022-11-20T09:38:33;23.80;36.40
29539;DHT22;16482;51.046;4.498;2022-11-20T09:41:06;23.80;36.30
29539;DHT22;16482;51.046;4.498;2022-11-20T09:43:54;23.80;36.40
29539;DHT22;16482;51.046;4.498;2022-11-20T09:47:16;23.80;36.40
29539;DHT22;16482;51.046;4.498;2022-11-20T09:55:50;23.70;36.40
29539;DHT22;16482;51.046;4.498;2022-11-20T09:58:40;23.70;36.40
29539;DHT22;16482;51.046;4.498;2022-11-20T10:04:24;23.80;36.50
29539;DHT22;16482;51.046;4.498;2022-11-20T10:10:16;23.80;36.40
29539;DHT22;16482;51.046;4.498;2022-11-20T10:12:54;23.70;36.50
29539;DHT22;16482;51.046;4.498;2022-11-20T10:21:03;23.80;36.50
29539;DHT22;16482;51.046;4.498;2022-11-20T10:26:49;23.70;36.40
29539;DHT22;16482;51.046;4.498;2022-11-20T10:29:32;23.80;36.40
29539;DHT22;16482;51.046;4.498;2022-11-20T10:32:23;23.80;36.40
29539;DHT22;16482;51.046;4.498;2022-11-20T10:38:21;23.80;36.30
29539;DHT22;16482;51.046;4.498;2022-11-20T10:44:28;23.80;36.30
29539;DHT22;16482;51.046;4.498;2022-11-20T10:47:18;23.70;36.20
29539;DHT22;16482;51.046;4.498;2022-11-20T10:49:50;23.70;36.30
29539;DHT22;16482;51.046;4.498;2022-11-20T10:55:43;23.70;36.20
29539;DHT22;16482;51.046;4.498;2022-11-20T10:58:16;23.80;36.30
29539;DHT22;16482;51.046;4.498;2022-11-20T11:00:45;23.70;36.20
29539;DHT22;16482;51.046;4.498;2022-11-20T11:03:23;23.80;36.30
29539;DHT22;16482;51.046;4.498;2022-11-20T11:06:08;23.70;36.20
29539;DHT22;16482;51.046;4.498;2022-11-20T11:08:39;23.80;36.30
29539;DHT22;16482;51.046;4.498;2022-11-20T11:11:27;23.80;36.30
29539;DHT22;16482;51.046;4.498;2022-11-20T11:14:14;23.70;36.20
29539;DHT22;16482;51.046;4.498;2022-11-20T11:17:18;23.70;36.80
29539;DHT22;16482;51.046;4.498;2022-11-20T11:19:45;23.80;36.20
29539;DHT22;16482;51.046;4.498;2022-11-20T11:22:16;23.70;36.20
29539;DHT22;16482;51.046;4.498;2022-11-20T11:24:54;23.70;36.20
29539;DHT22;16482;51.046;4.498;2022-11-20T11:27:20;23.80;36.30
29539;DHT22;16482;51.046;4.498;2022-11-20T11:29:46;23.80;36.30
29539;DHT22;16482;51.046;4.498;2022-11-20T11:35:47;23.80;36.20
29539;DHT22;16482;51.046;4.498;2022-11-20T11:38:16;23.70;36.20
29539;DHT22;16482;51.046;4.498;2022-11-20T11:40:44;23.80;36.20
29539;DHT22;16482;51.046;4.498;2022-11-20T11:43:24;23.80;36.30
29539;DHT22;16482;51.046;4.498;2022-11-20T11:54:26;23.80;36.30
29539;DHT22;16482;51.046;4.498;2022-11-20T11:57:09;23.80;36.30
29539;DHT22;16482;51.046;4.498;2022-11-20T12:00:10;23.80;36.30
29539;DHT22;16482;51.046;4.498;2022-11-20T12:03:09;23.80;36.40
29539;DHT22;16482;51.046;4.498;2022-11-20T12:05:44;23.80;36.40
29539;DHT22;16482;51.046;4.498;2022-11-20T12:08:51;23.80;36.40
29539;DHT22;16482;51.046;4.498;2022-11-20T12:11:43;23.70;36.40
29539;DHT22;16482;51.046;4.498;2022-11-20T12:14:20;23.80;36.40
29539;DHT22;16482;51.046;4.498;2022-11-20T12:16:55;23.80;36.50
29539;DHT22;16482;51.046;4.498;2022-11-20T12:19:23;23.80;36.50
29539;DHT22;16482;51.046;4.498;2022-11-20T12:35:52;23.80;36.40
29539;DHT22;16482;51.046;4.498;2022-11-20T12:41:28;23.80;36.50
29539;DHT22;16482;51.046;4.498;2022-11-20T12:44:32;23.80;36.40
29539;DHT22;16482;51.046;4.498;2022-11-20T12:53:58;23.80;36.50
29539;DHT22;16482;51.046;4.498;2022-11-20T13:07:48;23.80;36.50
29539;DHT22;16482;51.046;4.498;2022-11-20T13:10:27;23.80;36.60
29539;DHT22;16482;51.046;4.498;2022-11-20T13:19:28;23.70;36.50
29539;DHT22;16482;51.046;4.498;2022-11-20T13:21:55;23.70;36.50
29539;DHT22;16482;51.046;4.498;2022-11-20T13:24:25;23.70;36.50
29539;DHT22;16482;51.046;4.498;2022-11-20T13:29:37;23.80;36.60
29539;DHT22;16482;51.046;4.498;2022-11-20T13:35:13;23.80;36.60
29539;DHT22;16482;51.046;4.498;2022-11-20T13:38:15;23.70;36.60
29539;DHT22;16482;51.046;4.498;2022-11-20T13:41:00;23.70;36.70
29539;DHT22;16482;51.046;4.498;2022-11-20T13:43:47;23.80;36.60
29539;DHT22;16482;51.046;4.498;2022-11-20T13:49:26;23.80;36.70
29539;DHT22;16482;51.046;4.498;2022-11-20T14:01:17;23.70;36.70
29539;DHT22;16482;51.046;4.498;2022-11-20T14:03:47;23.70;36.80
29539;DHT22;16482;51.046;4.498;2022-11-20T14:06:28;23.70;36.80
29539;DHT22;16482;51.046;4.498;2022-11-20T14:11:59;23.70;36.80
29539;DHT22;16482;51.046;4.498;2022-11-20T14:17:48;23.70;36.80
29539;DHT22;16482;51.046;4.498;2022-11-20T14:20:17;23.70;36.90
29539;DHT22;16482;51.046;4.498;2022-11-20T14:22:50;23.70;36.90
29539;DHT22;16482;51.046;4.498;2022-11-20T14:31:08;23.80;36.90
29539;DHT22;16482;51.046;4.498;2022-11-20T14:33:42;23.70;37.00
29539;DHT22;16482;51.046;4.498;2022-11-20T14:36:28;23.70;37.00
29539;DHT22;16482;51.046;4.498;2022-11-20T14:38:54;23.70;37.00
29539;DHT22;16482;51.046;4.498;2022-11-20T14:41:20;23.70;36.90
29539;DHT22;16482;51.046;4.498;2022-11-20T14:47:10;23.70;37.20
29539;DHT22;16482;51.046;4.498;2022-11-20T14:49:37;23.70;37.20
29539;DHT22;16482;51.046;4.498;2022-11-20T14:52:16;23.70;37.20
29539;DHT22;16482;51.046;4.498;2022-11-20T14:54:46;23.70;37.20
29539;DHT22;16482;51.046;4.498;2022-11-20T15:00:56;23.70;37.20
29539;DHT22;16482;51.046;4.498;2022-11-20T15:03:22;23.70;37.10
29539;DHT22;16482;51.046;4.498;2022-11-20T15:05:49;23.70;37.20
29539;DHT22;16482;51.046;4.498;2022-11-20T15:08:16;23.70;37.20
29539;DHT22;16482;51.046;4.498;2022-11-20T15:10:48;23.70;37.20
29539;DHT22;16482;51.046;4.498;2022-11-20T15:13:25;23.70;37.10
29539;DHT22;16482;51.046;4.498;2022-11-20T15:19:21;23.80;37.20
29539;DHT22;16482;51.046;4.498;2022-11-20T15:21:55;23.70;37.20
29539;DHT22;16482;51.046;4.498;2022-11-20T15:28:04;23.70;37.20
29539;DHT22;16482;51.046;4.498;2022-11-20T15:30:30;23.70;37.20
29539;DHT22;16482;51.046;4.498;2022-11-20T15:32:56;23.80;37.30
29539;DHT22;16482;51.046;4.498;2022-11-20T15:35:22;23.80;37.30
29539;DHT22;16482;51.046;4.498;2022-11-20T15:37:48;23.80;37.30
29539;DHT22;16482;51.046;4.498;2022-11-20T15:40:20;23.80;37.30
29539;DHT22;16482;51.046;4.498;2022-11-20T15:42:48;23.80;37.30
29539;DHT22;16482;51.046;4.498;2022-11-20T15:45:33;23.80;37.30
29539;DHT22;16482;51.046;4.498;2022-11-20T15:48:02;23.80;37.30
29539;DHT22;16482;51.046;4.498;2022-11-20T15:50:34;23.80;37.30
29539;DHT22;16482;51.046;4.498;2022-11-20T15:53:05;23.80;37.30
29539;DHT22;16482;51.046;4.498;2022-11-20T15:55:31;23.80;37.30
29539;DHT22;16482;51.046;4.498;2022-11-20T15:57:59;23.80;37.30
29539;DHT22;16482;51.046;4.498;2022-11-20T16:00:25;23.80;37.30
29539;DHT22;16482;51.046;4.498;2022-11-20T16:06:05;23.80;37.30
29539;DHT22;16482;51.046;4.498;2022-11-20T16:08:34;23.80;37.40
29539;DHT22;16482;51.046;4.498;2022-11-20T16:11:16;23.80;37.40
29539;DHT22;16482;51.046;4.498;2022-11-20T16:13:42;23.80;37.40
29539;DHT22;16482;51.046;4.498;2022-11-20T16:16:34;23.80;37.40
29539;DHT22;16482;51.046;4.498;2022-11-20T16:19:00;23.80;37.40
29539;DHT22;16482;51.046;4.498;2022-11-20T16:21:26;23.80;37.40
29539;DHT22;16482;51.046;4.498;2022-11-20T16:24:03;23.80;37.40
29539;DHT22;16482;51.046;4.498;2022-11-20T16:26:30;23.80;37.40
29539;DHT22;16482;51.046;4.498;2022-11-20T16:28:56;23.80;37.40
29539;DHT22;16482;51.046;4.498;2022-11-20T16:31:22;23.80;37.40
29539;DHT22;16482;51.046;4.498;2022-11-20T16:33:59;23.80;37.50
29539;DHT22;16482;51.046;4.498;2022-11-20T16:36:26;23.80;37.40
29539;DHT22;16482;51.046;4.498;2022-11-20T16:39:12;23.80;37.40
29539;DHT22;16482;51.046;4.498;2022-11-20T16:41:38;23.80;37.40
29539;DHT22;16482;51.046;4.498;2022-11-20T16:44:09;23.80;37.40
29539;DHT22;16482;51.046;4.498;2022-11-20T16:46:58;23.80;37.40
29539;DHT22;16482;51.046;4.498;2022-11-20T16:49:27;23.90;37.50
29539;DHT22;16482;51.046;4.498;2022-11-20T16:52:01;23.80;37.40
29539;DHT22;16482;51.046;4.498;2022-11-20T16:54:30;23.80;37.50
29539;DHT22;16482;51.046;4.498;2022-11-20T16:56:56;23.80;37.40
29539;DHT22;16482;51.046;4.498;2022-11-20T16:59:24;23.80;37.40
29539;DHT22;16482;51.046;4.498;2022-11-20T17:02:15;23.80;37.40
29539;DHT22;16482;51.046;4.498;2022-11-20T17:04:42;23.80;37.40
29539;DHT22;16482;51.046;4.498;2022-11-20T17:07:08;23.80;37.40
29539;DHT22;16482;51.046;4.498;2022-11-20T17:09:33;23.80;37.40
29539;DHT22;16482;51.046;4.498;2022-11-20T17:15:04;23.80;37.40
29539;DHT22;16482;51.046;4.498;2022-11-20T17:17:30;23.80;37.40
29539;DHT22;16482;51.046;4.498;2022-11-20T17:19:58;23.80;37.40
29539;DHT22;16482;51.046;4.498;2022-11-20T17:22:23;23.80;37.40
29539;DHT22;16482;51.046;4.498;2022-11-20T17:24:49;23.80;37.40
29539;DHT22;16482;51.046;4.498;2022-11-20T17:27:15;23.80;37.40
29539;DHT22;16482;51.046;4.498;2022-11-20T17:29:41;23.80;37.40
29539;DHT22;16482;51.046;4.498;2022-11-20T17:32:07;23.80;37.30
29539;DHT22;16482;51.046;4.498;2022-11-20T17:34:32;23.80;37.30
29539;DHT22;16482;51.046;4.498;2022-11-20T17:36:58;23.80;37.30
29539;DHT22;16482;51.046;4.498;2022-11-20T17:42:55;23.80;37.20
29539;DHT22;16482;51.046;4.498;2022-11-20T17:45:21;23.80;37.20
29539;DHT22;16482;51.046;4.498;2022-11-20T17:47:51;23.80;37.10
29539;DHT22;16482;51.046;4.498;2022-11-20T17:50:37;23.80;37.10
29539;DHT22;16482;51.046;4.498;2022-11-20T17:53:02;23.80;37.10
29539;DHT22;16482;51.046;4.498;2022-11-20T17:55:30;23.80;37.00
29539;DHT22;16482;51.046;4.498;2022-11-20T17:58:16;23.80;37.00
29539;DHT22;16482;51.046;4.498;2022-11-20T18:00:42;23.80;36.90
29539;DHT22;16482;51.046;4.498;2022-11-20T18:03:27;23.80;36.90
29539;DHT22;16482;51.046;4.498;2022-11-20T18:05:53;23.80;36.80
29539;DHT22;16482;51.046;4.498;2022-11-20T18:08:19;23.80;36.90
29539;DHT22;16482;51.046;4.498;2022-11-20T18:13:49;23.80;36.80
29539;DHT22;16482;51.046;4.498;2022-11-20T18:16:37;23.80;36.80
29539;DHT22;16482;51.046;4.498;2022-11-20T18:22:46;23.80;36.70
29539;DHT22;16482;51.046;4.498;2022-11-20T18:25:20;23.80;36.70
29539;DHT22;16482;51.046;4.498;2022-11-20T18:27:46;23.80;36.70
29539;DHT22;16482;51.046;4.498;2022-11-20T18:30:16;23.80;36.70
29539;DHT22;16482;51.046;4.498;2022-11-20T18:32:46;23.80;36.70
29539;DHT22;16482;51.046;4.498;2022-11-20T18:35:18;23.80;36.70
29539;DHT22;16482;51.046;4.498;2022-11-20T18:37:47;23.80;36.60
29539;DHT22;16482;51.046;4.498;2022-11-20T18:40:20;23.80;36.60
29539;DHT22;16482;51.046;4.498;2022-11-20T18:42:46;23.80;36.60
29539;DHT22;16482;51.046;4.498;2022-11-20T18:45:30;23.80;36.60
29539;DHT22;16482;51.046;4.498;2022-11-20T18:47:56;23.80;36.60
29539;DHT22;16482;51.046;4.498;2022-11-20T18:50:22;23.80;36.60
29539;DHT22;16482;51.046;4.498;2022-11-20T18:55:53;23.80;36.50
29539;DHT22;16482;51.046;4.498;2022-11-20T18:58:19;23.80;36.60
29539;DHT22;16482;51.046;4.498;2022-11-20T19:03:50;23.80;36.60
29539;DHT22;16482;51.046;4.498;2022-11-20T19:06:16;23.80;36.60
29539;DHT22;16482;51.046;4.498;2022-11-20T19:08:42;23.80;36.50
29539;DHT22;16482;51.046;4.498;2022-11-20T19:11:10;23.80;36.60
29539;DHT22;16482;51.046;4.498;2022-11-20T19:13:36;23.80;36.60
29539;DHT22;16482;51.046;4.498;2022-11-20T19:16:23;23.80;36.50
29539;DHT22;16482;51.046;4.498;2022-11-20T19:18:49;23.80;36.50
29539;DHT22;16482;51.046;4.498;2022-11-20T19:21:16;23.80;36.50
29539;DHT22;16482;51.046;4.498;2022-11-20T19:27:01;23.80;36.50
29539;DHT22;16482;51.046;4.498;2022-11-20T19:29:28;23.80;36.50
29539;DHT22;16482;51.046;4.498;2022-11-20T19:31:54;23.80;36.50
29539;DHT22;16482;51.046;4.498;2022-11-20T19:34:26;23.80;36.50
29539;DHT22;16482;51.046;4.498;2022-11-20T19:36:58;23.80;36.50